This is the latest recevied weather packets stored in our database for station/object OK4PZ-5. If no packets are shown the sender has not sent any weather packets the latest 10 day(s).
| Time | Temp. | Humidity | Pressure | Rain* | Wind** | Luminosity | Snow |
|---|---|---|---|---|---|---|---|
| 1777766402 | 5.56° C | 88% | 1020 hPa | 0 mm | - | - | - |
| 1777765502 | 6.11° C | 86% | 1020 hPa | 0 mm | - | - | - |
| 1777764602 | 5.56° C | 86% | 1020 hPa | 0 mm | - | - | - |
| 1777763702 | 6.11° C | 83% | 1020 hPa | 0 mm | - | - | - |
| 1777762802 | 6.67° C | 83% | 1021 hPa | 0 mm | - | - | - |
| 1777761902 | 7.22° C | 82% | 1021 hPa | 0 mm | - | - | - |
| 1777761002 | 7.22° C | 82% | 1021 hPa | 0 mm | - | - | - |
| 1777760102 | 7.78° C | 80% | 1021 hPa | 0 mm | - | - | - |
| 1777759204 | 7.78° C | 80% | 1021 hPa | 0 mm | - | - | - |
| 1777758302 | 8.33° C | 80% | 1021 hPa | 0 mm | - | - | - |
| 1777757402 | 8.89° C | 78% | 1021 hPa | 0 mm | - | - | - |
| 1777756502 | 8.89° C | 79% | 1021 hPa | 0 mm | - | - | - |
| 1777755603 | 9.44° C | 75% | 1021 hPa | 0 mm | - | - | - |
| 1777754701 | 10° C | 73% | 1022 hPa | 0 mm | - | - | - |
| 1777753802 | 10.56° C | 66% | 1021 hPa | 0 mm | - | - | - |
| 1777752902 | 11.11° C | 61% | 1021 hPa | 0 mm | - | - | - |
| 1777752001 | 12.22° C | 57% | 1021 hPa | 0 mm | - | - | - |
| 1777751102 | 12.22° C | 59% | 1021 hPa | 0 mm | - | - | - |
| 1777750202 | 13.33° C | 59% | 1021 hPa | 0 mm | - | - | - |
| 1777749302 | 13.89° C | 55% | 1021 hPa | 0 mm | - | - | - |
| 1777748402 | 15.56° C | 45% | 1021 hPa | 0 mm | - | - | - |
| 1777747502 | 16.11° C | 42% | 1021 hPa | 0 mm | - | - | - |
| 1777746602 | 16.67° C | 40% | 1021 hPa | 0 mm | - | - | - |
| 1777745703 | 17.78° C | 36% | 1021 hPa | 0 mm | - | - | - |
| 1777744802 | 19.44° C | 33% | 1021 hPa | 0 mm | - | - | - |
* Rain latest hour (hover to see other rain measurements)
** Current wind speed in m/s (hover to see current wind gust speed)